THY5RD LTFM-LTAJ
Flight info
| Callsign | THY5RD |
|---|---|
| Flight time | 1h 25m |
| Altitude | 37000 |
| Route | VICEN1D/35L VICEN UT380 ASMAP UL333 BAG UL605 YUCEL UA17 ASBOM |
| Aircraft | A320/M-SDE3FGHIRWY/LB1 |
Departure
| Time | 2026-05-03 20:42 |
|---|---|
| Airport | İstanbul Airport (LTFM) |
Arrival
| Time | 2026-05-03 22:08 |
|---|---|
| Airport | Gaziantep Oğuzeli International Airport (LTAJ) |
| Time | Latitude | Longitude | Altitude | Speed | Heading |
|---|---|---|---|---|---|
| 2026-05-03 20:15 | 41.26066 | 28.73607 | 330 ft | 0 kts | 107° |
| 2026-05-03 20:31 | 41.26066 | 28.73606 | 334 ft | 0 kts | 107° |
| 2026-05-03 20:31 | 41.26072 | 28.73578 | 334 ft | 4 kts | 107° |
| 2026-05-03 20:31 | 41.26080 | 28.73544 | 329 ft | 4 kts | 106° |
| 2026-05-03 20:32 | 41.26084 | 28.73525 | 329 ft | 2 kts | 106° |
| 2026-05-03 20:32 | 41.26084 | 28.73489 | 329 ft | 4 kts | 33° |
| 2026-05-03 20:32 | 41.26069 | 28.73480 | 334 ft | 4 kts | 17° |
| 2026-05-03 20:32 | 41.26059 | 28.73476 | 334 ft | 0 kts | 17° |
| 2026-05-03 20:36 | 41.26061 | 28.73477 | 332 ft | 1 kts | 17° |
| 2026-05-03 20:37 | 41.26077 | 28.73483 | 330 ft | 4 kts | 17° |
| 2026-05-03 20:37 | 41.26109 | 28.73496 | 329 ft | 6 kts | 17° |
| 2026-05-03 20:37 | 41.26159 | 28.73515 | 334 ft | 9 kts | 13° |
| 2026-05-03 20:37 | 41.26217 | 28.73489 | 329 ft | 10 kts | 307° |
| 2026-05-03 20:38 | 41.26221 | 28.73390 | 331 ft | 12 kts | 272° |
| 2026-05-03 20:38 | 41.26221 | 28.73291 | 330 ft | 11 kts | 268° |
| 2026-05-03 20:38 | 41.26218 | 28.73177 | 333 ft | 13 kts | 269° |
| 2026-05-03 20:38 | 41.26216 | 28.73063 | 333 ft | 11 kts | 269° |
| 2026-05-03 20:39 | 41.26216 | 28.72999 | 332 ft | 4 kts | 269° |
| 2026-05-03 20:39 | 41.26215 | 28.72955 | 330 ft | 6 kts | 269° |
| 2026-05-03 20:39 | 41.26215 | 28.72891 | 331 ft | 8 kts | 269° |
| 2026-05-03 20:39 | 41.26213 | 28.72807 | 332 ft | 10 kts | 269° |
| 2026-05-03 20:40 | 41.26212 | 28.72701 | 331 ft | 13 kts | 269° |
| 2026-05-03 20:40 | 41.26211 | 28.72661 | 334 ft | 0 kts | 268° |
| 2026-05-03 20:40 | 41.26211 | 28.72655 | 332 ft | 2 kts | 268° |
| 2026-05-03 20:40 | 41.26210 | 28.72631 | 333 ft | 4 kts | 269° |
| 2026-05-03 20:41 | 41.26210 | 28.72589 | 329 ft | 6 kts | 269° |
| 2026-05-03 20:41 | 41.26227 | 28.72538 | 331 ft | 7 kts | 322° |
| 2026-05-03 20:41 | 41.26282 | 28.72525 | 329 ft | 9 kts | 357° |
| 2026-05-03 20:41 | 41.26430 | 28.72523 | 334 ft | 47 kts | 359° |
| 2026-05-03 20:42 | 41.26975 | 28.72512 | 333 ft | 107 kts | 359° |
| 2026-05-03 20:42 | 41.27869 | 28.72487 | 333 ft | 149 kts | 359° |
| 2026-05-03 20:42 | 41.28977 | 28.72461 | 678 ft | 160 kts | 360° |
| 2026-05-03 20:42 | 41.30088 | 28.72422 | 1296 ft | 160 kts | 359° |
| 2026-05-03 20:43 | 41.31194 | 28.72372 | 1893 ft | 159 kts | 359° |
| 2026-05-03 20:43 | 41.32285 | 28.72310 | 2505 ft | 155 kts | 0° |
| 2026-05-03 20:43 | 41.33353 | 28.72244 | 3091 ft | 154 kts | 4° |
| 2026-05-03 20:43 | 41.34477 | 28.72280 | 3364 ft | 172 kts | 6° |
| 2026-05-03 20:44 | 41.35720 | 28.72482 | 3570 ft | 187 kts | 22° |
| 2026-05-03 20:44 | 41.36763 | 28.73559 | 3869 ft | 203 kts | 56° |
| 2026-05-03 20:44 | 41.37059 | 28.75497 | 4183 ft | 235 kts | 97° |
| 2026-05-03 20:44 | 41.36508 | 28.77614 | 4878 ft | 248 kts | 108° |
| 2026-05-03 20:45 | 41.35757 | 28.79708 | 5697 ft | 254 kts | 110° |
| 2026-05-03 20:45 | 41.34941 | 28.81815 | 6541 ft | 258 kts | 110° |
| 2026-05-03 20:45 | 41.34109 | 28.83950 | 7354 ft | 261 kts | 110° |
| 2026-05-03 20:45 | 41.33274 | 28.86114 | 8137 ft | 265 kts | 110° |
| 2026-05-03 20:46 | 41.32437 | 28.88322 | 8867 ft | 272 kts | 109° |
| 2026-05-03 20:46 | 41.31578 | 28.90623 | 9446 ft | 281 kts | 109° |
| 2026-05-03 20:46 | 41.30702 | 28.92982 | 10115 ft | 289 kts | 110° |
| 2026-05-03 20:46 | 41.29786 | 28.95476 | 10346 ft | 312 kts | 111° |
| 2026-05-03 20:47 | 41.28804 | 28.98160 | 10517 ft | 334 kts | 111° |
| 2026-05-03 20:47 | 41.27764 | 29.00988 | 10992 ft | 343 kts | 111° |
| 2026-05-03 20:47 | 41.26708 | 29.03849 | 11609 ft | 347 kts | 112° |
| 2026-05-03 20:47 | 41.25637 | 29.06746 | 12222 ft | 351 kts | 112° |
| 2026-05-03 20:48 | 41.24552 | 29.09673 | 12843 ft | 354 kts | 113° |
| 2026-05-03 20:48 | 41.23455 | 29.12624 | 13466 ft | 358 kts | 113° |
| 2026-05-03 20:48 | 41.22349 | 29.15601 | 14062 ft | 361 kts | 113° |
| 2026-05-03 20:48 | 41.21232 | 29.18608 | 14657 ft | 365 kts | 113° |
| 2026-05-03 20:49 | 41.20118 | 29.21605 | 15218 ft | 368 kts | 113° |
| 2026-05-03 20:49 | 41.18980 | 29.24662 | 15781 ft | 371 kts | 114° |
| 2026-05-03 20:49 | 41.17835 | 29.27737 | 16299 ft | 374 kts | 114° |
| 2026-05-03 20:49 | 41.16679 | 29.30844 | 16828 ft | 377 kts | 114° |
| 2026-05-03 20:50 | 41.15508 | 29.33986 | 17356 ft | 380 kts | 114° |
| 2026-05-03 20:50 | 41.14333 | 29.37139 | 17879 ft | 384 kts | 114° |
| 2026-05-03 20:50 | 41.13144 | 29.40326 | 18397 ft | 387 kts | 114° |
| 2026-05-03 20:50 | 41.11947 | 29.43532 | 18905 ft | 389 kts | 114° |
| 2026-05-03 20:51 | 41.10741 | 29.46754 | 19418 ft | 392 kts | 114° |
| 2026-05-03 20:51 | 41.09521 | 29.50011 | 19941 ft | 395 kts | 114° |
| 2026-05-03 20:51 | 41.08292 | 29.53287 | 20455 ft | 398 kts | 114° |
| 2026-05-03 20:51 | 41.07056 | 29.56573 | 20940 ft | 400 kts | 114° |
| 2026-05-03 20:52 | 41.05807 | 29.59889 | 21391 ft | 403 kts | 114° |
| 2026-05-03 20:52 | 41.04553 | 29.63221 | 21825 ft | 405 kts | 114° |
| 2026-05-03 20:52 | 41.03289 | 29.66573 | 22252 ft | 408 kts | 115° |
| 2026-05-03 20:52 | 41.02018 | 29.69943 | 22678 ft | 410 kts | 115° |
| 2026-05-03 20:53 | 41.00740 | 29.73332 | 23083 ft | 413 kts | 115° |
| 2026-05-03 20:53 | 40.99452 | 29.76738 | 23478 ft | 415 kts | 115° |
| 2026-05-03 20:53 | 40.98155 | 29.80162 | 23873 ft | 418 kts | 115° |
| 2026-05-03 20:53 | 40.96847 | 29.83613 | 24267 ft | 420 kts | 115° |
| 2026-05-03 20:54 | 40.95534 | 29.87071 | 24636 ft | 422 kts | 115° |
| 2026-05-03 20:54 | 40.92880 | 29.94048 | 25366 ft | 426 kts | 115° |
| 2026-05-03 20:54 | 40.91544 | 29.97553 | 25733 ft | 428 kts | 115° |
| 2026-05-03 20:55 | 40.90198 | 30.01078 | 26080 ft | 430 kts | 115° |
| 2026-05-03 20:55 | 40.88849 | 30.04613 | 26429 ft | 432 kts | 115° |
| 2026-05-03 20:55 | 40.87496 | 30.08155 | 26829 ft | 432 kts | 116° |
| 2026-05-03 20:55 | 40.86138 | 30.11704 | 27213 ft | 433 kts | 116° |
| 2026-05-03 20:56 | 40.84772 | 30.15259 | 27555 ft | 435 kts | 116° |
| 2026-05-03 20:56 | 40.83398 | 30.18828 | 27891 ft | 437 kts | 116° |
| 2026-05-03 20:56 | 40.82018 | 30.22412 | 28224 ft | 438 kts | 116° |
| 2026-05-03 20:56 | 40.80639 | 30.26001 | 28544 ft | 439 kts | 116° |
| 2026-05-03 20:57 | 40.79279 | 30.29547 | 28973 ft | 438 kts | 116° |
| 2026-05-03 20:57 | 40.77908 | 30.33114 | 29401 ft | 436 kts | 117° |
| 2026-05-03 20:57 | 40.76535 | 30.36673 | 29815 ft | 435 kts | 117° |
| 2026-05-03 20:57 | 40.75161 | 30.40217 | 30249 ft | 433 kts | 117° |
| 2026-05-03 20:58 | 40.73790 | 30.43745 | 30708 ft | 431 kts | 117° |
| 2026-05-03 20:58 | 40.72424 | 30.47260 | 31100 ft | 430 kts | 117° |
| 2026-05-03 20:58 | 40.71060 | 30.50771 | 31471 ft | 430 kts | 117° |
| 2026-05-03 20:58 | 40.69699 | 30.54276 | 31824 ft | 430 kts | 117° |
| 2026-05-03 20:59 | 40.68339 | 30.57783 | 32179 ft | 430 kts | 117° |
| 2026-05-03 20:59 | 40.66980 | 30.61291 | 32547 ft | 429 kts | 117° |
| 2026-05-03 20:59 | 40.65627 | 30.64776 | 32938 ft | 428 kts | 117° |
| 2026-05-03 20:59 | 40.64266 | 30.68265 | 33301 ft | 427 kts | 117° |
| 2026-05-03 21:00 | 40.63048 | 30.71819 | 33666 ft | 426 kts | 109° |
| 2026-05-03 21:00 | 40.62468 | 30.74292 | 33911 ft | 426 kts | 105° |
| 2026-05-03 21:00 | 40.61418 | 30.79313 | 34350 ft | 425 kts | 106° |
| 2026-05-03 21:00 | 40.60628 | 30.83065 | 34655 ft | 425 kts | 106° |
| 2026-05-03 21:01 | 40.59834 | 30.86812 | 34965 ft | 425 kts | 106° |
| 2026-05-03 21:01 | 40.59039 | 30.90558 | 35243 ft | 425 kts | 106° |
| 2026-05-03 21:01 | 40.58245 | 30.94307 | 35498 ft | 426 kts | 106° |
| 2026-05-03 21:01 | 40.57447 | 30.98059 | 35762 ft | 426 kts | 106° |
| 2026-05-03 21:02 | 40.56648 | 31.01808 | 36057 ft | 425 kts | 106° |
| 2026-05-03 21:02 | 40.55848 | 31.05547 | 36320 ft | 425 kts | 106° |
| 2026-05-03 21:02 | 40.55047 | 31.09289 | 36530 ft | 425 kts | 106° |
| 2026-05-03 21:02 | 40.54245 | 31.13034 | 36724 ft | 426 kts | 106° |
| 2026-05-03 21:03 | 40.52620 | 31.20588 | 36776 ft | 432 kts | 106° |
| 2026-05-03 21:03 | 40.50991 | 31.28146 | 36777 ft | 428 kts | 107° |
| 2026-05-03 21:04 | 40.49368 | 31.35651 | 36755 ft | 426 kts | 107° |
| 2026-05-03 21:04 | 40.47741 | 31.43134 | 36748 ft | 425 kts | 107° |
| 2026-05-03 21:05 | 40.46109 | 31.50580 | 36747 ft | 424 kts | 107° |
| 2026-05-03 21:05 | 40.44486 | 31.58028 | 36746 ft | 424 kts | 107° |
| 2026-05-03 21:06 | 40.42861 | 31.65471 | 36750 ft | 424 kts | 107° |
| 2026-05-03 21:06 | 40.41226 | 31.72907 | 36751 ft | 424 kts | 108° |
| 2026-05-03 21:07 | 40.39592 | 31.80328 | 36751 ft | 423 kts | 108° |
| 2026-05-03 21:07 | 40.37945 | 31.87727 | 36748 ft | 423 kts | 108° |
| 2026-05-03 21:08 | 40.36299 | 31.95134 | 36746 ft | 423 kts | 108° |
| 2026-05-03 21:08 | 40.34651 | 32.02529 | 36746 ft | 423 kts | 108° |
| 2026-05-03 21:09 | 40.32897 | 32.09871 | 36752 ft | 421 kts | 115° |
| 2026-05-03 21:09 | 40.30421 | 32.16795 | 36753 ft | 419 kts | 117° |
| 2026-05-03 21:10 | 40.27923 | 32.23686 | 36754 ft | 419 kts | 117° |
| 2026-05-03 21:10 | 40.25427 | 32.30571 | 36750 ft | 418 kts | 117° |
| 2026-05-03 21:11 | 40.22937 | 32.37447 | 36748 ft | 418 kts | 117° |
| 2026-05-03 21:11 | 40.20444 | 32.44320 | 36748 ft | 418 kts | 117° |
| 2026-05-03 21:12 | 40.17943 | 32.51179 | 36747 ft | 417 kts | 117° |
| 2026-05-03 21:12 | 40.15440 | 32.58011 | 36748 ft | 417 kts | 117° |
| 2026-05-03 21:13 | 40.12933 | 32.64837 | 36745 ft | 416 kts | 117° |
| 2026-05-03 21:13 | 40.10430 | 32.71655 | 36746 ft | 416 kts | 117° |
| 2026-05-03 21:14 | 40.07927 | 32.78459 | 36749 ft | 415 kts | 118° |
| 2026-05-03 21:14 | 40.04711 | 32.84634 | 36751 ft | 411 kts | 130° |
| 2026-05-03 21:15 | 40.01088 | 32.90396 | 36749 ft | 410 kts | 130° |
| 2026-05-03 21:15 | 39.97475 | 32.96169 | 36747 ft | 410 kts | 130° |
| 2026-05-03 21:16 | 39.93886 | 33.01876 | 36746 ft | 410 kts | 130° |
| 2026-05-03 21:16 | 39.90267 | 33.07614 | 36747 ft | 410 kts | 130° |
| 2026-05-03 21:17 | 39.87240 | 33.12416 | 36750 ft | 409 kts | 130° |
| 2026-05-03 21:17 | 39.83041 | 33.19055 | 36751 ft | 409 kts | 130° |
| 2026-05-03 21:18 | 39.79426 | 33.24754 | 36749 ft | 408 kts | 130° |
| 2026-05-03 21:18 | 39.76410 | 33.29512 | 36745 ft | 407 kts | 131° |
| 2026-05-03 21:19 | 39.72809 | 33.35178 | 36741 ft | 406 kts | 131° |
| 2026-05-03 21:19 | 39.69213 | 33.40822 | 36737 ft | 406 kts | 131° |
| 2026-05-03 21:20 | 39.65614 | 33.46464 | 36740 ft | 405 kts | 131° |
| 2026-05-03 21:20 | 39.62042 | 33.52056 | 36739 ft | 404 kts | 131° |
| 2026-05-03 21:21 | 39.58444 | 33.57660 | 36738 ft | 404 kts | 131° |
| 2026-05-03 21:21 | 39.54875 | 33.63301 | 36739 ft | 405 kts | 130° |
| 2026-05-03 21:22 | 39.51366 | 33.68999 | 36738 ft | 405 kts | 130° |
| 2026-05-03 21:22 | 39.47854 | 33.74702 | 36737 ft | 405 kts | 130° |
| 2026-05-03 21:23 | 39.44315 | 33.80372 | 36733 ft | 405 kts | 131° |
| 2026-05-03 21:23 | 39.40719 | 33.85976 | 36731 ft | 405 kts | 131° |
| 2026-05-03 21:24 | 39.37101 | 33.91555 | 36730 ft | 405 kts | 131° |
| 2026-05-03 21:24 | 39.33483 | 33.97143 | 36730 ft | 405 kts | 131° |
| 2026-05-03 21:25 | 39.29878 | 34.02727 | 36732 ft | 405 kts | 131° |
| 2026-05-03 21:25 | 39.26281 | 34.08302 | 36737 ft | 403 kts | 131° |
| 2026-05-03 21:26 | 39.22693 | 34.13853 | 36736 ft | 402 kts | 131° |
| 2026-05-03 21:26 | 39.19104 | 34.19381 | 36730 ft | 401 kts | 131° |
| 2026-05-03 21:27 | 39.15519 | 34.24896 | 36724 ft | 401 kts | 131° |
| 2026-05-03 21:27 | 39.12179 | 34.30652 | 36720 ft | 403 kts | 122° |
| 2026-05-03 21:28 | 39.08984 | 34.36468 | 36717 ft | 400 kts | 131° |
| 2026-05-03 21:28 | 39.05422 | 34.41980 | 36716 ft | 401 kts | 131° |
| 2026-05-03 21:29 | 39.01825 | 34.47519 | 36714 ft | 401 kts | 131° |
| 2026-05-03 21:29 | 38.98272 | 34.52982 | 36713 ft | 401 kts | 131° |
| 2026-05-03 21:30 | 38.94700 | 34.58483 | 36704 ft | 401 kts | 131° |
| 2026-05-03 21:30 | 38.91127 | 34.63979 | 36700 ft | 402 kts | 131° |
| 2026-05-03 21:31 | 38.87535 | 34.69489 | 36703 ft | 402 kts | 131° |
| 2026-05-03 21:31 | 38.83940 | 34.74988 | 36706 ft | 402 kts | 132° |
| 2026-05-03 21:32 | 38.80352 | 34.80476 | 36712 ft | 402 kts | 132° |
| 2026-05-03 21:32 | 38.76754 | 34.85966 | 36714 ft | 402 kts | 132° |
| 2026-05-03 21:33 | 38.73136 | 34.91412 | 36710 ft | 401 kts | 132° |
| 2026-05-03 21:33 | 38.69490 | 34.96835 | 36708 ft | 402 kts | 133° |
| 2026-05-03 21:34 | 38.65826 | 35.02283 | 36704 ft | 401 kts | 133° |
| 2026-05-03 21:34 | 38.62205 | 35.07673 | 36700 ft | 402 kts | 133° |
| 2026-05-03 21:35 | 38.58559 | 35.13087 | 36701 ft | 401 kts | 133° |
| 2026-05-03 21:35 | 38.54917 | 35.18480 | 36692 ft | 401 kts | 133° |
| 2026-05-03 21:36 | 38.51267 | 35.23881 | 36694 ft | 401 kts | 133° |
| 2026-05-03 21:36 | 38.47627 | 35.29280 | 36696 ft | 401 kts | 133° |
| 2026-05-03 21:37 | 38.43984 | 35.34658 | 36690 ft | 401 kts | 133° |
| 2026-05-03 21:37 | 38.40329 | 35.40030 | 36691 ft | 401 kts | 133° |
| 2026-05-03 21:38 | 38.36678 | 35.45393 | 36445 ft | 400 kts | 133° |
| 2026-05-03 21:38 | 38.34847 | 35.48076 | 36196 ft | 400 kts | 133° |
| 2026-05-03 21:38 | 38.33022 | 35.50747 | 35947 ft | 401 kts | 133° |
| 2026-05-03 21:39 | 38.31187 | 35.53435 | 35696 ft | 402 kts | 133° |
| 2026-05-03 21:39 | 38.29350 | 35.56122 | 35448 ft | 402 kts | 133° |
| 2026-05-03 21:39 | 38.27519 | 35.58800 | 35195 ft | 401 kts | 133° |
| 2026-05-03 21:39 | 38.25692 | 35.61473 | 34954 ft | 400 kts | 133° |
| 2026-05-03 21:40 | 38.23868 | 35.64141 | 34698 ft | 398 kts | 133° |
| 2026-05-03 21:40 | 38.22059 | 35.66793 | 34439 ft | 396 kts | 133° |
| 2026-05-03 21:40 | 38.20255 | 35.69432 | 34203 ft | 394 kts | 133° |
| 2026-05-03 21:40 | 38.18459 | 35.72056 | 33961 ft | 393 kts | 133° |
| 2026-05-03 21:41 | 38.16668 | 35.74667 | 33701 ft | 391 kts | 133° |
| 2026-05-03 21:41 | 38.14878 | 35.77268 | 33452 ft | 390 kts | 133° |
| 2026-05-03 21:41 | 38.13095 | 35.79854 | 33203 ft | 389 kts | 133° |
| 2026-05-03 21:41 | 38.11315 | 35.82432 | 32952 ft | 387 kts | 133° |
| 2026-05-03 21:42 | 38.09545 | 35.84997 | 32698 ft | 386 kts | 133° |
| 2026-05-03 21:42 | 38.07783 | 35.87552 | 32452 ft | 384 kts | 133° |
| 2026-05-03 21:42 | 38.06021 | 35.90102 | 32199 ft | 383 kts | 133° |
| 2026-05-03 21:42 | 38.04268 | 35.92641 | 31955 ft | 382 kts | 133° |
| 2026-05-03 21:43 | 38.02521 | 35.95173 | 31701 ft | 381 kts | 133° |
| 2026-05-03 21:43 | 38.00779 | 35.97693 | 31451 ft | 379 kts | 133° |
| 2026-05-03 21:43 | 37.99038 | 36.00210 | 31198 ft | 378 kts | 133° |
| 2026-05-03 21:43 | 37.97309 | 36.02705 | 30951 ft | 377 kts | 133° |
| 2026-05-03 21:44 | 37.95581 | 36.05195 | 30695 ft | 375 kts | 133° |
| 2026-05-03 21:44 | 37.93857 | 36.07676 | 30448 ft | 374 kts | 133° |
| 2026-05-03 21:44 | 37.92145 | 36.10138 | 30196 ft | 371 kts | 133° |
| 2026-05-03 21:44 | 37.90446 | 36.12582 | 29945 ft | 367 kts | 133° |
| 2026-05-03 21:45 | 37.88763 | 36.15005 | 29701 ft | 364 kts | 133° |
| 2026-05-03 21:45 | 37.87094 | 36.17406 | 29443 ft | 364 kts | 133° |
| 2026-05-03 21:45 | 37.85443 | 36.19779 | 29190 ft | 363 kts | 133° |
| 2026-05-03 21:45 | 37.83770 | 36.22177 | 28946 ft | 364 kts | 133° |
| 2026-05-03 21:46 | 37.82093 | 36.24582 | 28701 ft | 365 kts | 133° |
| 2026-05-03 21:46 | 37.80415 | 36.26989 | 28448 ft | 365 kts | 133° |
| 2026-05-03 21:46 | 37.78737 | 36.29398 | 28193 ft | 366 kts | 133° |
| 2026-05-03 21:46 | 37.77046 | 36.31819 | 27945 ft | 367 kts | 133° |
| 2026-05-03 21:47 | 37.75357 | 36.34227 | 27691 ft | 367 kts | 133° |
| 2026-05-03 21:47 | 37.73655 | 36.36648 | 27438 ft | 368 kts | 133° |
| 2026-05-03 21:47 | 37.71958 | 36.39066 | 27191 ft | 369 kts | 132° |
| 2026-05-03 21:47 | 37.70252 | 36.41501 | 26937 ft | 369 kts | 132° |
| 2026-05-03 21:48 | 37.68549 | 36.43926 | 26679 ft | 370 kts | 132° |
| 2026-05-03 21:48 | 37.66842 | 36.46355 | 26436 ft | 370 kts | 132° |
| 2026-05-03 21:48 | 37.65131 | 36.48786 | 26190 ft | 371 kts | 132° |
| 2026-05-03 21:48 | 37.63418 | 36.51223 | 25933 ft | 371 kts | 132° |
| 2026-05-03 21:49 | 37.61702 | 36.53664 | 25682 ft | 372 kts | 132° |
| 2026-05-03 21:49 | 37.59988 | 36.56106 | 25438 ft | 373 kts | 132° |
| 2026-05-03 21:49 | 37.58267 | 36.58556 | 25179 ft | 374 kts | 132° |
| 2026-05-03 21:49 | 37.56538 | 36.61011 | 24929 ft | 374 kts | 132° |
| 2026-05-03 21:50 | 37.54806 | 36.63461 | 24678 ft | 374 kts | 132° |
| 2026-05-03 21:50 | 37.53073 | 36.65905 | 24431 ft | 375 kts | 132° |
| 2026-05-03 21:50 | 37.51338 | 36.68353 | 24139 ft | 372 kts | 132° |
| 2026-05-03 21:50 | 37.49630 | 36.70763 | 23666 ft | 368 kts | 132° |
| 2026-05-03 21:51 | 37.47932 | 36.73160 | 23191 ft | 365 kts | 132° |
| 2026-05-03 21:51 | 37.46246 | 36.75541 | 22714 ft | 364 kts | 131° |
| 2026-05-03 21:51 | 37.44571 | 36.77907 | 22254 ft | 362 kts | 131° |
| 2026-05-03 21:51 | 37.42901 | 36.80262 | 21808 ft | 359 kts | 131° |
| 2026-05-03 21:52 | 37.41240 | 36.82601 | 21371 ft | 357 kts | 131° |
| 2026-05-03 21:52 | 37.39595 | 36.84916 | 20946 ft | 353 kts | 131° |
| 2026-05-03 21:52 | 37.37962 | 36.87211 | 20524 ft | 350 kts | 131° |
| 2026-05-03 21:52 | 37.36346 | 36.89482 | 20087 ft | 348 kts | 131° |
| 2026-05-03 21:53 | 37.34738 | 36.91738 | 19661 ft | 345 kts | 131° |
| 2026-05-03 21:53 | 37.33142 | 36.93974 | 19217 ft | 342 kts | 131° |
| 2026-05-03 21:53 | 37.31558 | 36.96192 | 18770 ft | 340 kts | 131° |
| 2026-05-03 21:53 | 37.29981 | 36.98399 | 18316 ft | 338 kts | 131° |
| 2026-05-03 21:54 | 37.28418 | 37.00588 | 17867 ft | 336 kts | 131° |
| 2026-05-03 21:54 | 37.26923 | 37.02839 | 17419 ft | 337 kts | 123° |
| 2026-05-03 21:54 | 37.25665 | 37.05363 | 16994 ft | 344 kts | 121° |
| 2026-05-03 21:54 | 37.24433 | 37.07941 | 16386 ft | 345 kts | 121° |
| 2026-05-03 21:55 | 37.23204 | 37.10523 | 15853 ft | 344 kts | 121° |
| 2026-05-03 21:55 | 37.21979 | 37.13094 | 15350 ft | 342 kts | 121° |
| 2026-05-03 21:55 | 37.20766 | 37.15641 | 14861 ft | 339 kts | 121° |
| 2026-05-03 21:55 | 37.19561 | 37.18177 | 14394 ft | 337 kts | 121° |
| 2026-05-03 21:56 | 37.18368 | 37.20690 | 13893 ft | 335 kts | 121° |
| 2026-05-03 21:56 | 37.17182 | 37.23193 | 13397 ft | 332 kts | 121° |
| 2026-05-03 21:56 | 37.16009 | 37.25678 | 12897 ft | 330 kts | 121° |
| 2026-05-03 21:56 | 37.14850 | 37.28139 | 12634 ft | 328 kts | 121° |
| 2026-05-03 21:57 | 37.13694 | 37.30594 | 12607 ft | 321 kts | 121° |
| 2026-05-03 21:57 | 37.12591 | 37.32933 | 12613 ft | 303 kts | 121° |
| 2026-05-03 21:57 | 37.11544 | 37.35155 | 12616 ft | 288 kts | 121° |
| 2026-05-03 21:57 | 37.10550 | 37.37263 | 12615 ft | 274 kts | 121° |
| 2026-05-03 21:58 | 37.09602 | 37.39272 | 12617 ft | 261 kts | 121° |
| 2026-05-03 21:58 | 37.08699 | 37.41182 | 12611 ft | 249 kts | 121° |
| 2026-05-03 21:58 | 37.07806 | 37.43070 | 12054 ft | 259 kts | 121° |
| 2026-05-03 21:58 | 37.06861 | 37.45059 | 11351 ft | 273 kts | 121° |
| 2026-05-03 21:59 | 37.06041 | 37.47247 | 10818 ft | 280 kts | 112° |
| 2026-05-03 21:59 | 37.05371 | 37.49535 | 10466 ft | 279 kts | 111° |
| 2026-05-03 21:59 | 37.04719 | 37.51817 | 10115 ft | 279 kts | 111° |
| 2026-05-03 21:59 | 37.04064 | 37.54101 | 9762 ft | 278 kts | 111° |
| 2026-05-03 22:00 | 37.03407 | 37.56381 | 9411 ft | 278 kts | 111° |
| 2026-05-03 22:00 | 37.02751 | 37.58654 | 9060 ft | 278 kts | 111° |
| 2026-05-03 22:00 | 37.02107 | 37.60893 | 8770 ft | 276 kts | 111° |
| 2026-05-03 22:00 | 37.01462 | 37.63138 | 8490 ft | 273 kts | 111° |
| 2026-05-03 22:01 | 37.00826 | 37.65359 | 8199 ft | 270 kts | 111° |
| 2026-05-03 22:01 | 37.00190 | 37.67590 | 7932 ft | 267 kts | 111° |
| 2026-05-03 22:01 | 36.99577 | 37.69741 | 7660 ft | 265 kts | 111° |
| 2026-05-03 22:01 | 36.98963 | 37.71905 | 7385 ft | 263 kts | 111° |
| 2026-05-03 22:02 | 36.98232 | 37.73981 | 7105 ft | 259 kts | 127° |
| 2026-05-03 22:02 | 36.96892 | 37.75422 | 6825 ft | 253 kts | 155° |
| 2026-05-03 22:02 | 36.95224 | 37.75801 | 6629 ft | 240 kts | 186° |
| 2026-05-03 22:02 | 36.93713 | 37.75085 | 6451 ft | 229 kts | 211° |
| 2026-05-03 22:03 | 36.92435 | 37.73923 | 6281 ft | 226 kts | 215° |
| 2026-05-03 22:03 | 36.91291 | 37.72628 | 5924 ft | 224 kts | 229° |
| 2026-05-03 22:03 | 36.90558 | 37.70929 | 5624 ft | 220 kts | 250° |
| 2026-05-03 22:03 | 36.90361 | 37.69711 | 5455 ft | 212 kts | 263° |
| 2026-05-03 22:04 | 36.90601 | 37.67319 | 5099 ft | 206 kts | 285° |
| 2026-05-03 22:04 | 36.90852 | 37.66170 | 4931 ft | 199 kts | 285° |
| 2026-05-03 22:04 | 36.91202 | 37.64552 | 4658 ft | 185 kts | 286° |
| 2026-05-03 22:04 | 36.91522 | 37.63073 | 4425 ft | 173 kts | 287° |
| 2026-05-03 22:05 | 36.91825 | 37.61674 | 4222 ft | 162 kts | 287° |
| 2026-05-03 22:05 | 36.92113 | 37.60342 | 4004 ft | 156 kts | 288° |
| 2026-05-03 22:05 | 36.92394 | 37.59044 | 3795 ft | 154 kts | 288° |
| 2026-05-03 22:05 | 36.92672 | 37.57759 | 3591 ft | 152 kts | 288° |
| 2026-05-03 22:06 | 36.92947 | 37.56485 | 3390 ft | 151 kts | 289° |
| 2026-05-03 22:06 | 36.93220 | 37.55218 | 3189 ft | 150 kts | 288° |
| 2026-05-03 22:06 | 36.93493 | 37.53957 | 2990 ft | 150 kts | 288° |
| 2026-05-03 22:06 | 36.93764 | 37.52701 | 2789 ft | 149 kts | 288° |
| 2026-05-03 22:07 | 36.94032 | 37.51455 | 2585 ft | 149 kts | 288° |
| 2026-05-03 22:07 | 36.94301 | 37.50206 | 2417 ft | 148 kts | 288° |
| 2026-05-03 22:07 | 36.94564 | 37.48985 | 2340 ft | 140 kts | 287° |
| 2026-05-03 22:07 | 36.94810 | 37.47884 | 2280 ft | 112 kts | 284° |
| 2026-05-03 22:08 | 36.94932 | 37.47260 | 2281 ft | 47 kts | 285° |
| 2026-05-03 22:08 | 36.94933 | 37.47152 | 2280 ft | 1 kts | 192° |
| 2026-05-03 22:08 | 36.94928 | 37.47150 | 2280 ft | 1 kts | 199° |
| 2026-05-03 22:08 | 36.94908 | 37.47141 | 2281 ft | 5 kts | 199° |
| 2026-05-03 22:09 | 36.94905 | 37.47140 | 2281 ft | 0 kts | 199° |
| 2026-05-03 22:10 | 36.94891 | 37.47134 | 2282 ft | 4 kts | 198° |
| 2026-05-03 22:10 | 36.94854 | 37.47121 | 2283 ft | 8 kts | 193° |
| 2026-05-03 22:10 | 36.94795 | 37.47136 | 2290 ft | 10 kts | 136° |
| 2026-05-03 22:10 | 36.94766 | 37.47240 | 2287 ft | 16 kts | 104° |
| 2026-05-03 22:11 | 36.94736 | 37.47381 | 2294 ft | 17 kts | 104° |
| 2026-05-03 22:11 | 36.94705 | 37.47525 | 2298 ft | 17 kts | 106° |
| 2026-05-03 22:11 | 36.94673 | 37.47669 | 2287 ft | 17 kts | 105° |
| 2026-05-03 22:11 | 36.94626 | 37.47797 | 2288 ft | 13 kts | 165° |
| 2026-05-03 22:12 | 36.94547 | 37.47811 | 2299 ft | 11 kts | 122° |
| 2026-05-03 22:12 | 36.94540 | 37.47895 | 2293 ft | 10 kts | 80° |
| 2026-05-03 22:12 | 36.94517 | 37.47916 | 2297 ft | 5 kts | 244° |
| 2026-05-03 22:12 | 36.94535 | 37.47878 | 2295 ft | 5 kts | 309° |
| 2026-05-03 22:13 | 36.94559 | 37.47843 | 2294 ft | 5 kts | 320° |
| 2026-05-03 22:13 | 36.94576 | 37.47813 | 2288 ft | 0 kts | 294° |
| 2026-05-03 22:14 | 36.94577 | 37.47811 | 2288 ft | 1 kts | 294° |
| 2026-05-03 22:14 | 36.94581 | 37.47800 | 2287 ft | 3 kts | 292° |
| 2026-05-03 22:14 | 36.94586 | 37.47768 | 2292 ft | 4 kts | 268° |
| 2026-05-03 22:14 | 36.94568 | 37.47739 | 2291 ft | 3 kts | 231° |
| 2026-05-03 22:15 | 36.94567 | 37.47707 | 2291 ft | 4 kts | 271° |
| 2026-05-03 22:15 | 36.94556 | 37.47675 | 2294 ft | 4 kts | 223° |
| 2026-05-03 22:15 | 36.94529 | 37.47662 | 2288 ft | 4 kts | 197° |
| 2026-05-03 22:15 | 36.94524 | 37.47660 | 2288 ft | 0 kts | 197° |
| 2026-05-03 22:17 | 36.94518 | 37.47724 | 2303 ft | 0 kts | 195° |